sensor_id;sensor_type;location;lat;lon;timestamp;temperature;humidity
36716;DHT22;22699;51.034;3.730;2022-08-03T00:01:41;22.60;97.70
36716;DHT22;22699;51.034;3.730;2022-08-03T00:04:09;22.50;97.80
36716;DHT22;22699;51.034;3.730;2022-08-03T00:06:35;22.40;98.10
36716;DHT22;22699;51.034;3.730;2022-08-03T00:09:01;22.30;98.30
36716;DHT22;22699;51.034;3.730;2022-08-03T00:11:27;22.40;98.20
36716;DHT22;22699;51.034;3.730;2022-08-03T00:13:53;22.40;98.20
36716;DHT22;22699;51.034;3.730;2022-08-03T00:16:19;22.40;98.30
36716;DHT22;22699;51.034;3.730;2022-08-03T00:18:44;22.30;98.60
36716;DHT22;22699;51.034;3.730;2022-08-03T00:21:10;22.30;98.80
36716;DHT22;22699;51.034;3.730;2022-08-03T00:23:37;22.30;98.80
36716;DHT22;22699;51.034;3.730;2022-08-03T00:26:03;22.30;98.70
36716;DHT22;22699;51.034;3.730;2022-08-03T00:28:29;22.30;98.80
36716;DHT22;22699;51.034;3.730;2022-08-03T00:30:55;22.40;98.80
36716;DHT22;22699;51.034;3.730;2022-08-03T00:33:21;22.20;98.90
36716;DHT22;22699;51.034;3.730;2022-08-03T00:35:46;22.20;99.00
36716;DHT22;22699;51.034;3.730;2022-08-03T00:38:12;22.30;99.10
36716;DHT22;22699;51.034;3.730;2022-08-03T00:40:38;22.20;99.20
36716;DHT22;22699;51.034;3.730;2022-08-03T00:43:06;22.10;99.30
36716;DHT22;22699;51.034;3.730;2022-08-03T00:45:36;22.10;99.40
36716;DHT22;22699;51.034;3.730;2022-08-03T00:48:04;22.10;99.50
36716;DHT22;22699;51.034;3.730;2022-08-03T00:50:33;22.10;99.50
36716;DHT22;22699;51.034;3.730;2022-08-03T00:53:00;22.20;99.50
36716;DHT22;22699;51.034;3.730;2022-08-03T00:55:27;22.00;99.50
36716;DHT22;22699;51.034;3.730;2022-08-03T00:57:54;22.00;99.80
36716;DHT22;22699;51.034;3.730;2022-08-03T01:00:23;22.10;99.80
36716;DHT22;22699;51.034;3.730;2022-08-03T01:02:49;22.00;99.80
36716;DHT22;22699;51.034;3.730;2022-08-03T01:05:15;21.90;99.90
36716;DHT22;22699;51.034;3.730;2022-08-03T01:07:50;21.90;99.90
36716;DHT22;22699;51.034;3.730;2022-08-03T01:13:56;21.90;99.90
36716;DHT22;22699;51.034;3.730;2022-08-03T01:16:28;21.80;99.90
36716;DHT22;22699;51.034;3.730;2022-08-03T01:21:33;21.60;99.90
36716;DHT22;22699;51.034;3.730;2022-08-03T01:24:13;21.70;99.90
36716;DHT22;22699;51.034;3.730;2022-08-03T01:26:55;21.60;99.90
36716;DHT22;22699;51.034;3.730;2022-08-03T01:29:36;21.70;99.90
36716;DHT22;22699;51.034;3.730;2022-08-03T01:32:13;21.70;99.90
36716;DHT22;22699;51.034;3.730;2022-08-03T01:34:51;21.60;99.90
36716;DHT22;22699;51.034;3.730;2022-08-03T01:37:23;21.60;99.90
36716;DHT22;22699;51.034;3.730;2022-08-03T01:39:54;21.50;99.90
36716;DHT22;22699;51.034;3.730;2022-08-03T01:42:22;21.50;99.90
36716;DHT22;22699;51.034;3.730;2022-08-03T01:44:51;21.50;99.90
36716;DHT22;22699;51.034;3.730;2022-08-03T01:47:19;21.40;99.90
36716;DHT22;22699;51.034;3.730;2022-08-03T01:49:47;21.50;99.90
36716;DHT22;22699;51.034;3.730;2022-08-03T01:52:17;21.40;99.90
36716;DHT22;22699;51.034;3.730;2022-08-03T01:54:47;21.40;99.90
36716;DHT22;22699;51.034;3.730;2022-08-03T01:57:14;21.30;99.90
36716;DHT22;22699;51.034;3.730;2022-08-03T01:59:42;21.30;99.90
36716;DHT22;22699;51.034;3.730;2022-08-03T02:02:11;21.30;99.90
36716;DHT22;22699;51.034;3.730;2022-08-03T02:04:38;21.10;99.90
36716;DHT22;22699;51.034;3.730;2022-08-03T02:07:05;21.20;99.90
36716;DHT22;22699;51.034;3.730;2022-08-03T02:09:33;21.30;99.90
36716;DHT22;22699;51.034;3.730;2022-08-03T02:11:59;21.30;99.90
36716;DHT22;22699;51.034;3.730;2022-08-03T02:14:26;21.30;99.90
36716;DHT22;22699;51.034;3.730;2022-08-03T02:16:54;21.40;99.90
36716;DHT22;22699;51.034;3.730;2022-08-03T02:19:21;21.30;99.90
36716;DHT22;22699;51.034;3.730;2022-08-03T02:21:50;21.40;99.90
36716;DHT22;22699;51.034;3.730;2022-08-03T02:24:16;21.40;99.90
36716;DHT22;22699;51.034;3.730;2022-08-03T02:26:42;21.30;99.90
36716;DHT22;22699;51.034;3.730;2022-08-03T02:29:15;21.30;99.90
36716;DHT22;22699;51.034;3.730;2022-08-03T02:31:44;21.30;99.90
36716;DHT22;22699;51.034;3.730;2022-08-03T02:34:13;21.20;99.90
36716;DHT22;22699;51.034;3.730;2022-08-03T02:36:41;21.10;99.90
36716;DHT22;22699;51.034;3.730;2022-08-03T02:39:12;21.10;99.90
36716;DHT22;22699;51.034;3.730;2022-08-03T02:41:49;21.20;99.90
36716;DHT22;22699;51.034;3.730;2022-08-03T02:44:17;21.20;99.90
36716;DHT22;22699;51.034;3.730;2022-08-03T02:46:45;21.10;99.90
36716;DHT22;22699;51.034;3.730;2022-08-03T02:49:12;21.10;99.90
36716;DHT22;22699;51.034;3.730;2022-08-03T02:51:39;21.00;99.90
36716;DHT22;22699;51.034;3.730;2022-08-03T02:54:07;21.00;99.90
36716;DHT22;22699;51.034;3.730;2022-08-03T02:56:34;21.00;99.90
36716;DHT22;22699;51.034;3.730;2022-08-03T02:59:00;21.10;99.90
36716;DHT22;22699;51.034;3.730;2022-08-03T03:01:28;21.10;99.90
36716;DHT22;22699;51.034;3.730;2022-08-03T03:03:56;21.10;99.90
36716;DHT22;22699;51.034;3.730;2022-08-03T03:06:23;20.90;99.90
36716;DHT22;22699;51.034;3.730;2022-08-03T03:08:51;20.90;99.90
36716;DHT22;22699;51.034;3.730;2022-08-03T03:11:20;20.90;99.90
36716;DHT22;22699;51.034;3.730;2022-08-03T03:13:47;20.90;99.90
36716;DHT22;22699;51.034;3.730;2022-08-03T03:16:14;20.80;99.90
36716;DHT22;22699;51.034;3.730;2022-08-03T03:18:42;20.80;99.90
36716;DHT22;22699;51.034;3.730;2022-08-03T03:21:09;20.80;99.90
36716;DHT22;22699;51.034;3.730;2022-08-03T03:23:39;20.70;99.90
36716;DHT22;22699;51.034;3.730;2022-08-03T03:26:06;20.70;99.90
36716;DHT22;22699;51.034;3.730;2022-08-03T03:28:32;20.80;99.90
36716;DHT22;22699;51.034;3.730;2022-08-03T03:30:59;20.70;99.90
36716;DHT22;22699;51.034;3.730;2022-08-03T03:33:25;20.80;99.90
36716;DHT22;22699;51.034;3.730;2022-08-03T03:35:51;20.80;99.90
36716;DHT22;22699;51.034;3.730;2022-08-03T03:38:18;20.80;99.90
36716;DHT22;22699;51.034;3.730;2022-08-03T03:40:44;20.80;99.90
36716;DHT22;22699;51.034;3.730;2022-08-03T03:43:10;20.80;99.90
36716;DHT22;22699;51.034;3.730;2022-08-03T03:45:37;20.70;99.90
36716;DHT22;22699;51.034;3.730;2022-08-03T03:48:05;20.70;99.90
36716;DHT22;22699;51.034;3.730;2022-08-03T03:50:32;20.80;99.90
36716;DHT22;22699;51.034;3.730;2022-08-03T03:52:58;20.80;99.90
36716;DHT22;22699;51.034;3.730;2022-08-03T03:55:24;20.70;99.90
36716;DHT22;22699;51.034;3.730;2022-08-03T03:57:49;20.60;99.90
36716;DHT22;22699;51.034;3.730;2022-08-03T04:00:17;20.60;99.90
36716;DHT22;22699;51.034;3.730;2022-08-03T04:02:44;20.60;99.90
36716;DHT22;22699;51.034;3.730;2022-08-03T04:05:09;20.50;99.90
36716;DHT22;22699;51.034;3.730;2022-08-03T04:08:06;20.40;99.90
36716;DHT22;22699;51.034;3.730;2022-08-03T04:13:36;20.40;99.90
36716;DHT22;22699;51.034;3.730;2022-08-03T04:16:03;20.40;99.90
36716;DHT22;22699;51.034;3.730;2022-08-03T04:18:31;20.40;99.90
36716;DHT22;22699;51.034;3.730;2022-08-03T04:21:01;20.30;99.90
36716;DHT22;22699;51.034;3.730;2022-08-03T04:23:29;20.20;99.90
36716;DHT22;22699;51.034;3.730;2022-08-03T04:25:56;20.10;99.90
36716;DHT22;22699;51.034;3.730;2022-08-03T04:28:23;20.20;99.90
36716;DHT22;22699;51.034;3.730;2022-08-03T04:30:51;20.20;99.90
36716;DHT22;22699;51.034;3.730;2022-08-03T04:33:18;20.20;99.90
36716;DHT22;22699;51.034;3.730;2022-08-03T04:35:45;20.30;99.90
36716;DHT22;22699;51.034;3.730;2022-08-03T04:38:13;20.40;99.90
36716;DHT22;22699;51.034;3.730;2022-08-03T04:40:42;20.30;99.90
36716;DHT22;22699;51.034;3.730;2022-08-03T04:43:09;20.20;99.90
36716;DHT22;22699;51.034;3.730;2022-08-03T04:45:36;20.40;99.90
36716;DHT22;22699;51.034;3.730;2022-08-03T04:48:02;20.30;99.90
36716;DHT22;22699;51.034;3.730;2022-08-03T04:50:29;20.30;99.90
36716;DHT22;22699;51.034;3.730;2022-08-03T04:52:55;20.30;99.90
36716;DHT22;22699;51.034;3.730;2022-08-03T04:55:29;20.40;99.90
36716;DHT22;22699;51.034;3.730;2022-08-03T04:57:57;20.70;99.90
36716;DHT22;22699;51.034;3.730;2022-08-03T05:00:24;20.90;99.90
36716;DHT22;22699;51.034;3.730;2022-08-03T05:02:49;21.10;99.90
36716;DHT22;22699;51.034;3.730;2022-08-03T05:05:16;21.10;99.90
36716;DHT22;22699;51.034;3.730;2022-08-03T05:07:42;21.20;99.90
36716;DHT22;22699;51.034;3.730;2022-08-03T05:10:10;21.30;99.90
36716;DHT22;22699;51.034;3.730;2022-08-03T05:12:36;21.40;99.90
36716;DHT22;22699;51.034;3.730;2022-08-03T05:15:02;21.40;99.90
36716;DHT22;22699;51.034;3.730;2022-08-03T05:17:28;21.40;99.90
36716;DHT22;22699;51.034;3.730;2022-08-03T05:19:54;21.40;99.90
36716;DHT22;22699;51.034;3.730;2022-08-03T05:22:20;21.40;99.90
36716;DHT22;22699;51.034;3.730;2022-08-03T05:24:46;21.30;99.90
36716;DHT22;22699;51.034;3.730;2022-08-03T05:27:12;21.40;99.90
36716;DHT22;22699;51.034;3.730;2022-08-03T05:29:44;21.50;99.90
36716;DHT22;22699;51.034;3.730;2022-08-03T05:32:10;21.30;99.90
36716;DHT22;22699;51.034;3.730;2022-08-03T05:34:36;21.30;99.90
36716;DHT22;22699;51.034;3.730;2022-08-03T05:37:01;21.20;99.90
36716;DHT22;22699;51.034;3.730;2022-08-03T05:39:27;21.10;99.90
36716;DHT22;22699;51.034;3.730;2022-08-03T05:41:53;21.20;99.90
36716;DHT22;22699;51.034;3.730;2022-08-03T05:44:18;20.90;99.90
36716;DHT22;22699;51.034;3.730;2022-08-03T05:46:44;21.00;99.90
36716;DHT22;22699;51.034;3.730;2022-08-03T05:49:09;21.00;99.90
36716;DHT22;22699;51.034;3.730;2022-08-03T05:51:35;21.00;99.90
36716;DHT22;22699;51.034;3.730;2022-08-03T05:54:02;21.00;99.90
36716;DHT22;22699;51.034;3.730;2022-08-03T05:56:27;21.00;99.90
36716;DHT22;22699;51.034;3.730;2022-08-03T05:58:53;20.90;99.90
36716;DHT22;22699;51.034;3.730;2022-08-03T06:01:20;21.10;99.90
36716;DHT22;22699;51.034;3.730;2022-08-03T06:03:49;21.10;99.90
36716;DHT22;22699;51.034;3.730;2022-08-03T06:06:15;21.30;99.90
36716;DHT22;22699;51.034;3.730;2022-08-03T06:08:42;21.30;99.90
36716;DHT22;22699;51.034;3.730;2022-08-03T06:11:08;21.40;99.90
36716;DHT22;22699;51.034;3.730;2022-08-03T06:13:34;21.50;99.90
36716;DHT22;22699;51.034;3.730;2022-08-03T06:16:00;21.40;99.90
36716;DHT22;22699;51.034;3.730;2022-08-03T06:18:25;21.40;99.90
36716;DHT22;22699;51.034;3.730;2022-08-03T06:20:52;21.40;99.90
36716;DHT22;22699;51.034;3.730;2022-08-03T06:23:17;21.30;99.90
36716;DHT22;22699;51.034;3.730;2022-08-03T06:25:43;21.30;99.90
36716;DHT22;22699;51.034;3.730;2022-08-03T06:28:09;21.40;99.90
36716;DHT22;22699;51.034;3.730;2022-08-03T06:30:35;21.40;99.90
36716;DHT22;22699;51.034;3.730;2022-08-03T06:33:01;21.50;99.90
36716;DHT22;22699;51.034;3.730;2022-08-03T06:35:26;21.70;99.90
36716;DHT22;22699;51.034;3.730;2022-08-03T06:37:53;21.80;99.90
36716;DHT22;22699;51.034;3.730;2022-08-03T06:40:21;21.80;99.90
36716;DHT22;22699;51.034;3.730;2022-08-03T06:42:53;21.80;99.90
36716;DHT22;22699;51.034;3.730;2022-08-03T06:45:19;22.00;99.90
36716;DHT22;22699;51.034;3.730;2022-08-03T06:47:44;22.00;99.90
36716;DHT22;22699;51.034;3.730;2022-08-03T06:50:10;21.90;99.90
36716;DHT22;22699;51.034;3.730;2022-08-03T06:52:36;21.90;99.90
36716;DHT22;22699;51.034;3.730;2022-08-03T06:55:01;22.00;99.90
36716;DHT22;22699;51.034;3.730;2022-08-03T06:57:27;22.00;99.90
36716;DHT22;22699;51.034;3.730;2022-08-03T06:59:53;22.20;99.90
36716;DHT22;22699;51.034;3.730;2022-08-03T07:02:18;22.20;99.90
36716;DHT22;22699;51.034;3.730;2022-08-03T07:04:44;22.20;99.90
36716;DHT22;22699;51.034;3.730;2022-08-03T07:07:10;22.30;99.90
36716;DHT22;22699;51.034;3.730;2022-08-03T07:09:35;22.40;99.90
36716;DHT22;22699;51.034;3.730;2022-08-03T07:12:02;22.50;99.90
36716;DHT22;22699;51.034;3.730;2022-08-03T07:14:28;22.60;99.90
36716;DHT22;22699;51.034;3.730;2022-08-03T07:16:54;22.60;99.90
36716;DHT22;22699;51.034;3.730;2022-08-03T07:19:19;22.50;99.90
36716;DHT22;22699;51.034;3.730;2022-08-03T07:21:45;22.60;99.90
36716;DHT22;22699;51.034;3.730;2022-08-03T07:24:11;22.70;99.90
36716;DHT22;22699;51.034;3.730;2022-08-03T07:26:37;22.90;99.90
36716;DHT22;22699;51.034;3.730;2022-08-03T07:29:02;23.00;99.90
36716;DHT22;22699;51.034;3.730;2022-08-03T07:31:28;23.00;99.90
36716;DHT22;22699;51.034;3.730;2022-08-03T07:33:53;23.20;99.80
36716;DHT22;22699;51.034;3.730;2022-08-03T07:36:19;23.80;99.00
36716;DHT22;22699;51.034;3.730;2022-08-03T07:38:44;25.60;96.50
36716;DHT22;22699;51.034;3.730;2022-08-03T07:41:11;28.00;91.70
36716;DHT22;22699;51.034;3.730;2022-08-03T07:43:42;29.10;85.50
36716;DHT22;22699;51.034;3.730;2022-08-03T07:46:19;31.80;77.40
36716;DHT22;22699;51.034;3.730;2022-08-03T07:48:45;33.30;68.60
36716;DHT22;22699;51.034;3.730;2022-08-03T07:51:11;35.30;63.80
36716;DHT22;22699;51.034;3.730;2022-08-03T07:53:37;37.20;59.30
36716;DHT22;22699;51.034;3.730;2022-08-03T07:56:02;38.70;54.70
36716;DHT22;22699;51.034;3.730;2022-08-03T07:58:28;38.40;53.50
36716;DHT22;22699;51.034;3.730;2022-08-03T08:00:54;38.80;53.00
36716;DHT22;22699;51.034;3.730;2022-08-03T08:03:19;38.90;52.10
36716;DHT22;22699;51.034;3.730;2022-08-03T08:05:46;39.20;52.00
36716;DHT22;22699;51.034;3.730;2022-08-03T08:08:12;37.90;52.30
36716;DHT22;22699;51.034;3.730;2022-08-03T08:10:37;39.20;51.60
36716;DHT22;22699;51.034;3.730;2022-08-03T08:13:03;39.90;50.30
36716;DHT22;22699;51.034;3.730;2022-08-03T08:15:29;41.30;48.60
36716;DHT22;22699;51.034;3.730;2022-08-03T08:17:58;42.30;47.50
36716;DHT22;22699;51.034;3.730;2022-08-03T08:20:30;43.10;46.00
36716;DHT22;22699;51.034;3.730;2022-08-03T08:23:01;43.60;45.60
36716;DHT22;22699;51.034;3.730;2022-08-03T08:25:28;43.80;44.90
36716;DHT22;22699;51.034;3.730;2022-08-03T08:27:53;45.60;43.20
36716;DHT22;22699;51.034;3.730;2022-08-03T08:30:21;46.30;42.10
36716;DHT22;22699;51.034;3.730;2022-08-03T08:32:48;46.70;41.30
36716;DHT22;22699;51.034;3.730;2022-08-03T08:35:14;46.20;41.50
36716;DHT22;22699;51.034;3.730;2022-08-03T08:37:40;46.00;41.30
36716;DHT22;22699;51.034;3.730;2022-08-03T08:40:07;44.50;42.30
36716;DHT22;22699;51.034;3.730;2022-08-03T08:42:33;43.80;42.80
36716;DHT22;22699;51.034;3.730;2022-08-03T08:45:01;44.70;42.00
36716;DHT22;22699;51.034;3.730;2022-08-03T08:47:30;45.10;41.60
36716;DHT22;22699;51.034;3.730;2022-08-03T08:49:57;44.60;41.50
36716;DHT22;22699;51.034;3.730;2022-08-03T08:52:26;44.70;41.90
36716;DHT22;22699;51.034;3.730;2022-08-03T08:54:57;44.10;42.00
36716;DHT22;22699;51.034;3.730;2022-08-03T08:57:27;45.00;41.50
36716;DHT22;22699;51.034;3.730;2022-08-03T08:59:54;45.90;41.10
36716;DHT22;22699;51.034;3.730;2022-08-03T09:02:22;46.50;40.80
36716;DHT22;22699;51.034;3.730;2022-08-03T09:04:48;47.00;39.60
36716;DHT22;22699;51.034;3.730;2022-08-03T09:07:14;46.30;39.70
36716;DHT22;22699;51.034;3.730;2022-08-03T09:09:40;46.40;39.70
36716;DHT22;22699;51.034;3.730;2022-08-03T09:12:07;46.00;40.20
36716;DHT22;22699;51.034;3.730;2022-08-03T09:14:33;45.80;40.20
36716;DHT22;22699;51.034;3.730;2022-08-03T09:17:00;46.10;39.90
36716;DHT22;22699;51.034;3.730;2022-08-03T09:19:27;45.60;40.00
36716;DHT22;22699;51.034;3.730;2022-08-03T09:22:11;45.70;40.10
36716;DHT22;22699;51.034;3.730;2022-08-03T09:24:53;46.20;40.00
36716;DHT22;22699;51.034;3.730;2022-08-03T09:27:20;46.20;39.50
36716;DHT22;22699;51.034;3.730;2022-08-03T09:29:50;45.50;40.40
36716;DHT22;22699;51.034;3.730;2022-08-03T09:32:22;47.00;39.70
36716;DHT22;22699;51.034;3.730;2022-08-03T09:34:50;49.10;38.30
36716;DHT22;22699;51.034;3.730;2022-08-03T09:37:18;49.30;37.80
36716;DHT22;22699;51.034;3.730;2022-08-03T09:39:45;50.20;37.00
36716;DHT22;22699;51.034;3.730;2022-08-03T09:42:16;49.00;37.00
36716;DHT22;22699;51.034;3.730;2022-08-03T09:44:45;48.20;37.80
36716;DHT22;22699;51.034;3.730;2022-08-03T09:47:13;48.20;38.00
36716;DHT22;22699;51.034;3.730;2022-08-03T09:49:54;48.00;37.80
36716;DHT22;22699;51.034;3.730;2022-08-03T09:52:21;46.60;38.20
36716;DHT22;22699;51.034;3.730;2022-08-03T09:54:53;46.10;39.00
36716;DHT22;22699;51.034;3.730;2022-08-03T09:57:24;45.10;39.30
36716;DHT22;22699;51.034;3.730;2022-08-03T09:59:51;45.40;39.70
36716;DHT22;22699;51.034;3.730;2022-08-03T10:02:22;45.90;39.30
36716;DHT22;22699;51.034;3.730;2022-08-03T10:04:48;45.70;39.00
36716;DHT22;22699;51.034;3.730;2022-08-03T10:07:18;45.70;39.30
36716;DHT22;22699;51.034;3.730;2022-08-03T10:12:20;44.80;39.20
36716;DHT22;22699;51.034;3.730;2022-08-03T10:14:46;41.70;41.80
36716;DHT22;22699;51.034;3.730;2022-08-03T10:17:12;39.40;44.40
36716;DHT22;22699;51.034;3.730;2022-08-03T10:19:37;38.00;46.30
36716;DHT22;22699;51.034;3.730;2022-08-03T10:22:06;36.40;48.40
36716;DHT22;22699;51.034;3.730;2022-08-03T10:24:52;35.40;49.70
36716;DHT22;22699;51.034;3.730;2022-08-03T10:27:26;34.30;51.90
36716;DHT22;22699;51.034;3.730;2022-08-03T10:29:54;33.40;53.10
36716;DHT22;22699;51.034;3.730;2022-08-03T10:32:38;32.40;55.00
36716;DHT22;22699;51.034;3.730;2022-08-03T10:35:10;32.20;55.60
36716;DHT22;22699;51.034;3.730;2022-08-03T10:37:41;32.10;56.10
36716;DHT22;22699;51.034;3.730;2022-08-03T10:40:09;32.10;56.10
36716;DHT22;22699;51.034;3.730;2022-08-03T10:42:36;32.10;56.00
36716;DHT22;22699;51.034;3.730;2022-08-03T10:45:12;32.00;56.20
36716;DHT22;22699;51.034;3.730;2022-08-03T10:47:39;31.40;57.10
36716;DHT22;22699;51.034;3.730;2022-08-03T10:50:05;31.10;57.90
36716;DHT22;22699;51.034;3.730;2022-08-03T10:52:32;31.00;58.80
36716;DHT22;22699;51.034;3.730;2022-08-03T10:54:57;30.90;58.50
36716;DHT22;22699;51.034;3.730;2022-08-03T10:57:52;30.70;59.00
36716;DHT22;22699;51.034;3.730;2022-08-03T11:00:22;30.40;59.70
36716;DHT22;22699;51.034;3.730;2022-08-03T11:03:11;30.30;60.20
36716;DHT22;22699;51.034;3.730;2022-08-03T11:05:43;30.40;60.10
36716;DHT22;22699;51.034;3.730;2022-08-03T11:08:21;30.40;60.30
36716;DHT22;22699;51.034;3.730;2022-08-03T11:10:47;30.60;59.90
36716;DHT22;22699;51.034;3.730;2022-08-03T11:13:18;30.70;59.60
36716;DHT22;22699;51.034;3.730;2022-08-03T11:15:45;30.60;59.70
36716;DHT22;22699;51.034;3.730;2022-08-03T11:18:14;30.60;60.00
36716;DHT22;22699;51.034;3.730;2022-08-03T11:20:44;30.60;60.00
36716;DHT22;22699;51.034;3.730;2022-08-03T11:23:11;30.70;59.40
36716;DHT22;22699;51.034;3.730;2022-08-03T11:28:43;30.80;59.20
36716;DHT22;22699;51.034;3.730;2022-08-03T11:31:42;30.70;59.10
36716;DHT22;22699;51.034;3.730;2022-08-03T11:34:13;30.90;59.40
36716;DHT22;22699;51.034;3.730;2022-08-03T11:37:18;30.90;58.90
36716;DHT22;22699;51.034;3.730;2022-08-03T11:39:46;30.90;59.40
36716;DHT22;22699;51.034;3.730;2022-08-03T11:44:53;30.90;59.30
36716;DHT22;22699;51.034;3.730;2022-08-03T11:47:20;30.90;59.20
36716;DHT22;22699;51.034;3.730;2022-08-03T11:49:47;31.10;59.10
36716;DHT22;22699;51.034;3.730;2022-08-03T11:52:15;31.30;58.60
36716;DHT22;22699;51.034;3.730;2022-08-03T11:54:41;31.70;57.70
36716;DHT22;22699;51.034;3.730;2022-08-03T11:57:08;31.90;57.30
36716;DHT22;22699;51.034;3.730;2022-08-03T11:59:35;31.90;57.00
36716;DHT22;22699;51.034;3.730;2022-08-03T12:02:10;31.80;57.70
36716;DHT22;22699;51.034;3.730;2022-08-03T12:04:52;31.90;56.90
36716;DHT22;22699;51.034;3.730;2022-08-03T12:07:18;31.70;57.20
36716;DHT22;22699;51.034;3.730;2022-08-03T12:10:05;31.70;57.30
36716;DHT22;22699;51.034;3.730;2022-08-03T12:12:33;31.80;57.10
36716;DHT22;22699;51.034;3.730;2022-08-03T12:14:59;31.60;57.40
36716;DHT22;22699;51.034;3.730;2022-08-03T12:17:35;31.40;57.40
36716;DHT22;22699;51.034;3.730;2022-08-03T12:20:03;31.30;58.20
36716;DHT22;22699;51.034;3.730;2022-08-03T12:22:39;31.80;57.40
36716;DHT22;22699;51.034;3.730;2022-08-03T12:25:08;32.00;56.50
36716;DHT22;22699;51.034;3.730;2022-08-03T12:27:34;32.10;56.30
36716;DHT22;22699;51.034;3.730;2022-08-03T12:30:01;32.10;56.40
36716;DHT22;22699;51.034;3.730;2022-08-03T12:32:28;32.20;56.60
36716;DHT22;22699;51.034;3.730;2022-08-03T12:34:54;32.40;56.10
36716;DHT22;22699;51.034;3.730;2022-08-03T12:37:24;32.80;55.90
36716;DHT22;22699;51.034;3.730;2022-08-03T12:39:55;32.80;55.70
36716;DHT22;22699;51.034;3.730;2022-08-03T12:42:34;32.80;55.80
36716;DHT22;22699;51.034;3.730;2022-08-03T12:45:20;32.40;56.30
36716;DHT22;22699;51.034;3.730;2022-08-03T12:47:55;32.40;56.40
36716;DHT22;22699;51.034;3.730;2022-08-03T12:50:29;32.70;55.90
36716;DHT22;22699;51.034;3.730;2022-08-03T12:52:56;32.40;55.90
36716;DHT22;22699;51.034;3.730;2022-08-03T12:55:23;32.50;56.00
36716;DHT22;22699;51.034;3.730;2022-08-03T12:57:49;32.10;56.50
36716;DHT22;22699;51.034;3.730;2022-08-03T13:00:19;32.20;57.10
36716;DHT22;22699;51.034;3.730;2022-08-03T13:02:45;32.00;57.20
36716;DHT22;22699;51.034;3.730;2022-08-03T13:05:12;32.30;57.00
36716;DHT22;22699;51.034;3.730;2022-08-03T13:07:45;32.00;57.30
36716;DHT22;22699;51.034;3.730;2022-08-03T13:10:26;32.40;56.80
36716;DHT22;22699;51.034;3.730;2022-08-03T13:12:52;32.70;56.00
36716;DHT22;22699;51.034;3.730;2022-08-03T13:15:18;33.00;55.50
36716;DHT22;22699;51.034;3.730;2022-08-03T13:17:44;33.20;55.10
36716;DHT22;22699;51.034;3.730;2022-08-03T13:20:13;33.20;55.20
36716;DHT22;22699;51.034;3.730;2022-08-03T13:22:38;33.20;55.10
36716;DHT22;22699;51.034;3.730;2022-08-03T13:25:04;32.80;55.70
36716;DHT22;22699;51.034;3.730;2022-08-03T13:27:30;33.30;55.10
36716;DHT22;22699;51.034;3.730;2022-08-03T13:29:57;33.10;55.10
36716;DHT22;22699;51.034;3.730;2022-08-03T13:32:33;32.80;55.70
36716;DHT22;22699;51.034;3.730;2022-08-03T13:34:59;32.80;55.80
36716;DHT22;22699;51.034;3.730;2022-08-03T13:37:28;32.70;55.70
36716;DHT22;22699;51.034;3.730;2022-08-03T13:39:53;33.10;55.50
36716;DHT22;22699;51.034;3.730;2022-08-03T13:42:19;33.40;55.60
36716;DHT22;22699;51.034;3.730;2022-08-03T13:44:45;33.30;55.00
36716;DHT22;22699;51.034;3.730;2022-08-03T13:47:11;33.70;54.40
36716;DHT22;22699;51.034;3.730;2022-08-03T13:49:36;33.80;54.30
36716;DHT22;22699;51.034;3.730;2022-08-03T13:52:02;33.70;54.30
36716;DHT22;22699;51.034;3.730;2022-08-03T13:54:28;33.50;53.60
36716;DHT22;22699;51.034;3.730;2022-08-03T13:56:54;33.40;53.90
36716;DHT22;22699;51.034;3.730;2022-08-03T13:59:23;32.90;54.90
36716;DHT22;22699;51.034;3.730;2022-08-03T14:01:50;32.70;55.60
36716;DHT22;22699;51.034;3.730;2022-08-03T14:04:16;32.90;55.00
36716;DHT22;22699;51.034;3.730;2022-08-03T14:06:43;32.70;55.20
36716;DHT22;22699;51.034;3.730;2022-08-03T14:09:12;32.80;55.20
36716;DHT22;22699;51.034;3.730;2022-08-03T14:11:44;32.70;55.30
36716;DHT22;22699;51.034;3.730;2022-08-03T14:14:10;32.50;55.70
36716;DHT22;22699;51.034;3.730;2022-08-03T14:16:39;32.80;55.40
36716;DHT22;22699;51.034;3.730;2022-08-03T14:19:06;32.50;55.50
36716;DHT22;22699;51.034;3.730;2022-08-03T14:21:38;32.50;55.90
36716;DHT22;22699;51.034;3.730;2022-08-03T14:24:04;32.40;56.00
36716;DHT22;22699;51.034;3.730;2022-08-03T14:26:30;32.40;56.00
36716;DHT22;22699;51.034;3.730;2022-08-03T14:28:56;32.60;55.70
36716;DHT22;22699;51.034;3.730;2022-08-03T14:31:21;32.50;55.80
36716;DHT22;22699;51.034;3.730;2022-08-03T14:33:48;32.50;55.80
36716;DHT22;22699;51.034;3.730;2022-08-03T14:36:13;32.80;55.70
36716;DHT22;22699;51.034;3.730;2022-08-03T14:38:45;32.60;55.60
36716;DHT22;22699;51.034;3.730;2022-08-03T14:41:10;32.50;56.20
36716;DHT22;22699;51.034;3.730;2022-08-03T14:43:36;32.80;56.00
36716;DHT22;22699;51.034;3.730;2022-08-03T14:46:02;32.90;55.70
36716;DHT22;22699;51.034;3.730;2022-08-03T14:48:28;32.90;54.40
36716;DHT22;22699;51.034;3.730;2022-08-03T14:50:53;33.00;54.40
36716;DHT22;22699;51.034;3.730;2022-08-03T14:53:19;33.00;54.40
36716;DHT22;22699;51.034;3.730;2022-08-03T14:55:46;32.70;54.70
36716;DHT22;22699;51.034;3.730;2022-08-03T14:58:21;33.00;54.50
36716;DHT22;22699;51.034;3.730;2022-08-03T15:01:06;33.30;54.30
36716;DHT22;22699;51.034;3.730;2022-08-03T15:03:34;33.60;53.50
36716;DHT22;22699;51.034;3.730;2022-08-03T15:05:59;33.50;53.60
36716;DHT22;22699;51.034;3.730;2022-08-03T15:08:25;33.70;52.80
36716;DHT22;22699;51.034;3.730;2022-08-03T15:10:53;33.80;52.80
36716;DHT22;22699;51.034;3.730;2022-08-03T15:13:20;33.70;52.80
36716;DHT22;22699;51.034;3.730;2022-08-03T15:15:46;33.60;53.00
36716;DHT22;22699;51.034;3.730;2022-08-03T15:18:13;33.70;53.10
36716;DHT22;22699;51.034;3.730;2022-08-03T15:20:39;33.70;53.10
36716;DHT22;22699;51.034;3.730;2022-08-03T15:23:04;33.50;53.20
36716;DHT22;22699;51.034;3.730;2022-08-03T15:25:30;33.50;53.30
36716;DHT22;22699;51.034;3.730;2022-08-03T15:27:55;33.40;53.30
36716;DHT22;22699;51.034;3.730;2022-08-03T15:30:21;33.30;53.50
36716;DHT22;22699;51.034;3.730;2022-08-03T15:32:47;33.50;52.90
36716;DHT22;22699;51.034;3.730;2022-08-03T15:35:12;33.70;52.60
36716;DHT22;22699;51.034;3.730;2022-08-03T15:37:38;33.60;52.50
36716;DHT22;22699;51.034;3.730;2022-08-03T15:40:16;33.30;53.20
36716;DHT22;22699;51.034;3.730;2022-08-03T15:42:42;33.30;53.20
36716;DHT22;22699;51.034;3.730;2022-08-03T15:45:31;33.10;53.20
36716;DHT22;22699;51.034;3.730;2022-08-03T15:47:57;33.10;53.20
36716;DHT22;22699;51.034;3.730;2022-08-03T15:50:23;33.10;53.20
36716;DHT22;22699;51.034;3.730;2022-08-03T15:52:52;33.40;52.90
36716;DHT22;22699;51.034;3.730;2022-08-03T15:55:24;33.60;52.70